< < Back
Terminal Aerodrome Forecast


Current Version              Previous Versions:   1  2  3  4  5  6  7  8  9  

Terminal Aerodrome Forecast

790
FTUS42 KTAE 061720
TAFABY
TAF
KABY 061720Z 0618/0718 34012G18KT P6SM FEW060
     FM070000 32005KT P6SM SKC
     FM071500 34007KT P6SM SKC=

Latest METAR

212
SAUS70 KWBC 062000 RRB
MTRABY
METAR KABY 061953Z 35011G19KT 10SM SCT075 24/04 A2990 RMK AO2 SLP126
T02390044


USA.gov is the U.S. government's official web portal to all federal, state and local government web resources and services.